• Join FlightAware (Why Join?)
  • Login
  • US Flag 
06:01AM EDT


 

Airport Tracker/Info


-or-


 

Live Flight TrackerFlight Track Log ✈ DAL3982 ✈ 28-Apr-2013 ✈ KATL - CYUL

Flight Track Log - Related Links

Times and Time Zones

All times are in EDT time to prevent confusion due to time zone crossing. See the DAL3982 flight status page for this flight to view local times or setup timezone preferences in your user account.

Time Position Orientation Groundspeed Altitude Reporting Facility
EDT Latitude Longitude Course Direction KTS MPH feet Rate Location/Type
10:06PM 33.6497 -84.3733 North 443 510 2,500  Level Atlanta Center
10:07PM 33.6603 -84.3033 80° East 341 392 3,500 1,800 Climbing Atlanta Center
10:08PM 33.6814 -84.2136 74° East 296 341 6,100 2,640 Climbing Atlanta Center
10:09PM 33.9441 -84.2667 North  Level FlightAware Approximate
10:09PM 33.7586 -84.1986 North 292 336 8,800  Level Atlanta Center
10:10PM 34.0704 -84.2667 North  Level FlightAware Approximate
10:10PM 33.8464 -84.2114 353° North 326 375 10,000  Level Atlanta Center
10:11PM 34.1965 -84.2667 North  Level FlightAware Approximate
10:11PM 33.9506 -84.2292 352° North 367 422 10,000  Level Atlanta Center
10:12PM 34.0611 -84.2469 352° North 394 453 11,900 1,980 Climbing Atlanta Center
10:13PM 34.1761 -84.2647 353° North 408 470 14,000 2,220 Climbing Atlanta Center
10:14PM 34.2928 -84.2778 355° North 408 470 16,400 2,220 Climbing Atlanta Center
10:15PM 34.4097 -84.2553 North 408 470 18,500 1,860 Climbing Atlanta Center
10:16PM 34.5267 -84.2253 12° North 423 487 20,200 1,500 Climbing Atlanta Center
10:17PM 34.6500 -84.1978 10° North 430 495 21,500 1,200 Climbing Atlanta Center
10:18PM 34.7708 -84.1703 11° North 436 502 22,600 1,140 Climbing Atlanta Center
10:19PM 34.9003 -84.1400 11° North 449 517 23,800 1,200 Climbing Atlanta Center
10:20PM 35.0319 -84.1072 12° North 466 536 25,100 1,140 Climbing Atlanta Center
10:21PM 35.1653 -84.0744 11° North 471 542 26,100 780 Climbing Atlanta Center
10:22PM 35.3011 -84.0414 11° North 482 555 26,700 900 Climbing Atlanta Center
10:23PM 35.4408 -84.0108 10° North 495 570 27,900 1,200 Climbing Atlanta Center
10:24PM 35.5786 -83.9750 12° North 501 577 29,100 1,260 Climbing Atlanta Center
10:25PM 35.7161 -83.9442 10° North 506 582 30,500 1,260 Climbing Atlanta Center
10:26PM 35.8517 -83.9081 12° North 506 582 31,700 1,080 Climbing Atlanta Center
10:27PM 35.9831 -83.8489 20° North 500 575 32,700 1,020 Climbing Atlanta Center
10:29PM 36.1797 -83.7194 28° Northeast 504 580 34,500 840 Climbing Indianapolis Center
10:30PM 36.3303 -83.6236 27° Northeast 506 582 35,000 240 Climbing Indianapolis Center
10:31PM 36.4597 -83.5417 27° Northeast 521 600 35,000  Level Indianapolis Center
10:32PM 36.5758 -83.4703 26° Northeast 530 610 35,000  Level Indianapolis Center
10:33PM 36.7081 -83.3853 27° Northeast 531 611 35,000  Level Indianapolis Center
10:34PM 36.8333 -83.2850 33° Northeast 535 616 35,000  Level Indianapolis Center
10:35PM 36.9564 -83.1756 35° Northeast 536 617 35,000  Level Indianapolis Center
10:36PM 37.0800 -83.0656 35° Northeast 536 617 35,000  Level Indianapolis Center
10:37PM 37.2039 -82.9550 35° Northeast 538 619 35,000  Level Indianapolis Center
10:38PM 37.3267 -82.8442 36° Northeast 540 621 35,000  Level Indianapolis Center
10:39PM 37.4492 -82.7333 36° Northeast 541 623 35,000  Level Indianapolis Center
10:40PM 37.5914 -82.6044 36° Northeast 538 619 35,000  Level Indianapolis Center
10:41PM 37.7125 -82.4944 36° Northeast 536 617 35,000  Level Indianapolis Center
10:42PM 37.8331 -82.3811 37° Northeast 538 619 35,000  Level Indianapolis Center
10:43PM 37.9556 -82.2711 35° Northeast 540 621 35,000  Level Indianapolis Center
10:44PM 38.0778 -82.1592 36° Northeast 542 624 35,000  Level Indianapolis Center
10:45PM 38.1931 -82.0503 37° Northeast 542 624 35,000  Level Indianapolis Center
10:46PM 38.3161 -81.9369 36° Northeast 546 628 35,000  Level Indianapolis Center
10:47PM 38.4383 -81.8214 37° Northeast 547 629 35,000  Level Indianapolis Center
10:48PM 38.5622 -81.7056 36° Northeast 549 632 35,000  Level Indianapolis Center
10:49PM 38.6911 -81.5856 36° Northeast 547 629 35,000  Level Indianapolis Center
10:50PM 38.8150 -81.4683 36° Northeast 549 632 35,000  Level Indianapolis Center
10:51PM 38.9439 -81.3439 37° Northeast 554 638 35,000  Level Indianapolis Center
10:52PM 39.0656 -81.2272 37° Northeast 548 631 35,000  Level Indianapolis Center
10:53PM 39.1864 -81.1103 37° Northeast 544 626 35,000  Level Indianapolis Center
10:54PM 39.3078 -80.9931 37° Northeast 544 626 35,000  Level Indianapolis Center
10:55PM 39.4267 -80.8781 37° Northeast 536 617 35,000  Level Indianapolis Center
10:56PM 39.5456 -80.7625 37° Northeast 534 615 35,000  Level Indianapolis Center
10:57PM 39.6639 -80.6472 37° Northeast 531 611 35,000  Level Indianapolis Center
10:57PM 39.7294 -80.5858 36° Northeast 537 618 35,000  Level Cleveland Center
10:58PM 39.8461 -80.4694 37° Northeast 537 618 35,000  Level Cleveland Center
10:59PM 39.9647 -80.3528 37° Northeast 537 618 35,000  Level Cleveland Center
11:00PM 40.0792 -80.2411 37° Northeast 526 605 35,000  Level Cleveland Center
11:01PM 40.1956 -80.1236 38° Northeast 516 594 35,000  Level Cleveland Center
11:02PM 40.3075 -80.0086 38° Northeast 516 594 35,000  Level Cleveland Center
11:03PM 40.4133 -79.9014 38° Northeast 516 594 35,000  Level Cleveland Center
11:04PM 40.5292 -79.7883 37° Northeast 516 594 35,000  Level Cleveland Center
11:05PM 40.6431 -79.6719 38° Northeast 516 594 35,000  Level Cleveland Center
11:06PM 40.7567 -79.5553 38° Northeast 516 594 35,000  Level Cleveland Center
11:07PM 40.8683 -79.4408 38° Northeast 516 594 35,000  Level Cleveland Center
11:08PM 40.9836 -79.3233 38° Northeast 516 594 35,000  Level Cleveland Center
11:09PM 41.0969 -79.2056 38° Northeast 511 588 35,000  Level Cleveland Center
11:10PM 41.2081 -79.0928 37° Northeast 511 588 35,000  Level Cleveland Center
11:11PM 41.3211 -78.9742 38° Northeast 511 588 35,000  Level Cleveland Center
11:12PM 41.4319 -78.8550 39° Northeast 511 588 35,000  Level Cleveland Center
11:13PM 41.5450 -78.7381 38° Northeast 511 588 35,000 -180 Level Cleveland Center
11:14PM 41.6636 -78.6125 38° Northeast 511 588 34,700 -660 Descending Cleveland Center
11:15PM 41.7700 -78.4978 39° Northeast 504 580 33,700 -900 Descending Cleveland Center
11:16PM 41.8722 -78.3886 38° Northeast 487 560 33,000 -360 Descending Cleveland Center
11:17PM 41.9744 -78.2789 39° Northeast 475 547 33,000  Level Cleveland Center
11:18PM 42.0764 -78.1744 37° Northeast 470 541 33,000  Level Cleveland Center
11:19PM 42.1806 -78.0614 39° Northeast 470 541 33,000  Level Cleveland Center
11:20PM 42.2822 -77.9506 39° Northeast 470 541 33,000  Level Cleveland Center
11:21PM 42.3858 -77.8367 39° Northeast 470 541 33,000  Level Cleveland Center
11:22PM 42.4794 -77.7397 37° Northeast 470 541 33,000  Level Cleveland Center
11:23PM 42.5847 -77.6222 39° Northeast 476 548 33,000  Level Cleveland Center
11:24PM 42.6881 -77.5069 39° Northeast 482 555 33,000  Level Cleveland Center
11:25PM 42.7953 -77.3858 40° Northeast 487 560 33,000  Level Cleveland Center
11:26PM 42.8983 -77.2728 39° Northeast 487 560 33,000  Level Cleveland Center
11:29PM 43.1561 -76.9833 39° Northeast 491 565 33,000  Level Boston Center
11:30PM 43.2631 -76.8631 39° Northeast 491 565 33,000  Level Boston Center
11:31PM 43.3697 -76.7422 39° Northeast 491 565 33,000  Level Boston Center
11:31PM 43.4000 -76.6833 55° Northeast 500 575 33,000  Level Montreal Center
11:32PM 43.4678 -76.6289 30° Northeast 499 574 33,000 -300 Level Boston Center
11:33PM 43.5831 -76.4964 40° Northeast 493 567 32,500 -780 Descending Boston Center
11:34PM 43.6853 -76.3797 40° Northeast 488 562 31,500 -1,020 Descending Boston Center
11:35PM 43.7850 -76.2653 40° Northeast 477 549 30,500 -1,020 Descending Boston Center
11:36PM 43.8825 -76.1506 40° Northeast 471 542 29,500 -1,020 Descending Boston Center
11:37PM 43.9819 -76.0414 38° Northeast 461 531 28,500 -780 Descending Boston Center
11:38PM 44.0869 -75.9492 32° Northeast 450 518 28,000 -300 Descending Boston Center
11:39PM 44.1961 -75.8514 33° Northeast 450 518 28,000  Level Boston Center
11:40PM 44.3011 -75.7558 33° Northeast 455 524 28,000  Level Boston Center
11:41PM 44.4103 -75.6575 33° Northeast 455 524 28,000  Level Boston Center
11:41PM 44.4333 -75.6167 52° Northeast 470 541 28,000 -600 Level Montreal Center
11:42PM 44.5233 -75.5586 25° Northeast 460 529 27,400 -1,560 Descending Boston Center
11:43PM 44.6300 -75.4622 33° Northeast 465 535 25,400 -2,280 Descending Boston Center
11:43PM 44.6500 -75.4333 46° Northeast 460 529 24,500 -2,340 Descending Montreal Center
11:44PM 44.7500 -75.3000 43° Northeast 460 529 22,400 -2,280 Descending Montreal Center
11:45PM 44.8333 -75.1667 49° Northeast 450 518 20,000 -2,280 Descending Montreal Center
11:46PM 44.9000 -75.0500 51° Northeast 430 495 17,900 -2,100 Descending Montreal Center
11:47PM 44.9833 -74.9000 52° Northeast 420 483 15,800 -2,100 Descending Montreal Center
11:48PM 45.0333 -74.7833 59° Northeast 400 460 13,700 -2,100 Descending Montreal Center
11:49PM 45.0833 -74.6333 65° Northeast 380 437 11,600 -1,740 Descending Montreal Center
11:50PM 45.1333 -74.5500 50° Northeast 330 380 10,300 -1,500 Descending Montreal Center
11:51PM 45.1833 -74.4500 55° Northeast 290 334 8,700 -1,500 Descending Montreal Center
11:52PM 45.2167 -74.3500 65° Northeast 270 311 7,300 -1,260 Descending Montreal Center
11:53PM 45.2333 -74.2500 77° East 250 288 6,200 -1,080 Descending Montreal Center
11:54PM 45.2500 -74.1667 74° East 230 265 5,200 -900 Descending Montreal Center
11:55PM 45.2667 -74.0667 77° East 230 265 4,400 -840 Descending Montreal Center
11:56PM 45.2833 -74.0000 70° East 230 265 3,600 -660 Descending Montreal Center
11:57PM 45.3167 -73.9167 60° Northeast 220 253 3,100 -600 Descending Montreal Center
11:58PM 45.3667 -73.8667 35° Northeast 180 207 2,500 -600 Descending Montreal Center